sensor_id;sensor_type;location;lat;lon;timestamp;temperature;humidity
4922;DHT22;16625;53.624;10.106;2022-12-20T00:01:42;6.80;99.90
4922;DHT22;16625;53.624;10.106;2022-12-20T00:04:10;6.90;99.90
4922;DHT22;16625;53.624;10.106;2022-12-20T00:06:38;6.90;99.90
4922;DHT22;16625;53.624;10.106;2022-12-20T00:09:07;6.90;99.90
4922;DHT22;16625;53.624;10.106;2022-12-20T00:11:37;6.90;99.90
4922;DHT22;16625;53.624;10.106;2022-12-20T00:14:04;6.80;99.90
4922;DHT22;16625;53.624;10.106;2022-12-20T00:16:35;6.80;99.90
4922;DHT22;16625;53.624;10.106;2022-12-20T00:19:04;7.40;99.90
4922;DHT22;16625;53.624;10.106;2022-12-20T00:21:32;7.70;99.90
4922;DHT22;16625;53.624;10.106;2022-12-20T00:24:00;6.80;99.90
4922;DHT22;16625;53.624;10.106;2022-12-20T00:26:29;6.90;99.90
4922;DHT22;16625;53.624;10.106;2022-12-20T00:28:57;8.30;99.90
4922;DHT22;16625;53.624;10.106;2022-12-20T00:31:26;7.70;99.90
4922;DHT22;16625;53.624;10.106;2022-12-20T00:33:56;6.30;99.90
4922;DHT22;16625;53.624;10.106;2022-12-20T00:36:25;6.80;99.90
4922;DHT22;16625;53.624;10.106;2022-12-20T00:38:54;6.80;99.90
4922;DHT22;16625;53.624;10.106;2022-12-20T00:41:23;6.90;99.90
4922;DHT22;16625;53.624;10.106;2022-12-20T00:43:50;7.00;99.90
4922;DHT22;16625;53.624;10.106;2022-12-20T00:46:18;8.10;99.90
4922;DHT22;16625;53.624;10.106;2022-12-20T00:48:47;6.50;99.90
4922;DHT22;16625;53.624;10.106;2022-12-20T00:51:18;7.10;99.90
4922;DHT22;16625;53.624;10.106;2022-12-20T00:53:45;7.90;99.90
4922;DHT22;16625;53.624;10.106;2022-12-20T00:56:13;7.90;99.90
4922;DHT22;16625;53.624;10.106;2022-12-20T00:58:42;8.10;99.90
4922;DHT22;16625;53.624;10.106;2022-12-20T01:01:20;8.10;99.90
4922;DHT22;16625;53.624;10.106;2022-12-20T01:03:49;7.10;99.90
4922;DHT22;16625;53.624;10.106;2022-12-20T01:06:18;7.00;99.90
4922;DHT22;16625;53.624;10.106;2022-12-20T01:08:45;7.90;99.90
4922;DHT22;16625;53.624;10.106;2022-12-20T01:11:14;6.90;99.90
4922;DHT22;16625;53.624;10.106;2022-12-20T01:13:44;7.70;99.90
4922;DHT22;16625;53.624;10.106;2022-12-20T01:16:18;8.10;99.90
4922;DHT22;16625;53.624;10.106;2022-12-20T01:18:46;7.60;99.90
4922;DHT22;16625;53.624;10.106;2022-12-20T01:21:14;6.80;99.90
4922;DHT22;16625;53.624;10.106;2022-12-20T01:27:12;7.00;99.90
4922;DHT22;16625;53.624;10.106;2022-12-20T01:29:39;7.10;99.90
4922;DHT22;16625;53.624;10.106;2022-12-20T01:32:05;7.10;99.90
4922;DHT22;16625;53.624;10.106;2022-12-20T01:34:32;7.10;99.90
4922;DHT22;16625;53.624;10.106;2022-12-20T01:36:59;6.60;99.90
4922;DHT22;16625;53.624;10.106;2022-12-20T01:39:26;6.40;99.90
4922;DHT22;16625;53.624;10.106;2022-12-20T01:41:53;8.00;99.90
4922;DHT22;16625;53.624;10.106;2022-12-20T01:44:54;7.70;99.90
4922;DHT22;16625;53.624;10.106;2022-12-20T01:47:22;7.10;99.90
4922;DHT22;16625;53.624;10.106;2022-12-20T01:49:53;8.20;99.90
4922;DHT22;16625;53.624;10.106;2022-12-20T01:52:25;7.60;99.90
4922;DHT22;16625;53.624;10.106;2022-12-20T01:54:58;7.10;99.90
4922;DHT22;16625;53.624;10.106;2022-12-20T01:57:31;8.00;99.90
4922;DHT22;16625;53.624;10.106;2022-12-20T02:00:03;7.10;99.90
4922;DHT22;16625;53.624;10.106;2022-12-20T02:02:31;7.10;99.90
4922;DHT22;16625;53.624;10.106;2022-12-20T02:04:59;6.80;99.90
4922;DHT22;16625;53.624;10.106;2022-12-20T02:07:27;6.50;99.90
4922;DHT22;16625;53.624;10.106;2022-12-20T02:13:21;7.20;99.90
4922;DHT22;16625;53.624;10.106;2022-12-20T02:15:55;7.20;99.90
4922;DHT22;16625;53.624;10.106;2022-12-20T02:18:26;7.30;99.90
4922;DHT22;16625;53.624;10.106;2022-12-20T02:24:22;8.20;99.90
4922;DHT22;16625;53.624;10.106;2022-12-20T02:30:09;7.20;99.90
4922;DHT22;16625;53.624;10.106;2022-12-20T02:32:41;7.30;99.90
4922;DHT22;16625;53.624;10.106;2022-12-20T02:35:13;6.80;99.90
4922;DHT22;16625;53.624;10.106;2022-12-20T02:37:52;7.60;99.90
4922;DHT22;16625;53.624;10.106;2022-12-20T02:40:23;7.40;99.90
4922;DHT22;16625;53.624;10.106;2022-12-20T02:42:53;7.40;99.90
4922;DHT22;16625;53.624;10.106;2022-12-20T02:45:26;8.10;99.90
4922;DHT22;16625;53.624;10.106;2022-12-20T02:48:00;7.50;99.90
4922;DHT22;16625;53.624;10.106;2022-12-20T02:50:39;8.50;99.90
4922;DHT22;16625;53.624;10.106;2022-12-20T02:53:11;7.60;99.90
4922;DHT22;16625;53.624;10.106;2022-12-20T02:55:45;7.60;99.90
4922;DHT22;16625;53.624;10.106;2022-12-20T02:58:20;8.10;99.90
4922;DHT22;16625;53.624;10.106;2022-12-20T03:00:50;7.80;99.90
4922;DHT22;16625;53.624;10.106;2022-12-20T03:03:19;7.80;99.90
4922;DHT22;16625;53.624;10.106;2022-12-20T03:05:51;7.90;99.90
4922;DHT22;16625;53.624;10.106;2022-12-20T03:08:19;7.90;99.90
4922;DHT22;16625;53.624;10.106;2022-12-20T03:10:47;8.80;99.90
4922;DHT22;16625;53.624;10.106;2022-12-20T03:13:24;7.50;99.90
4922;DHT22;16625;53.624;10.106;2022-12-20T03:15:53;8.00;99.90
4922;DHT22;16625;53.624;10.106;2022-12-20T03:18:20;8.10;99.90
4922;DHT22;16625;53.624;10.106;2022-12-20T03:20:47;8.30;99.90
4922;DHT22;16625;53.624;10.106;2022-12-20T03:23:14;8.20;99.90
4922;DHT22;16625;53.624;10.106;2022-12-20T03:25:41;8.30;99.90
4922;DHT22;16625;53.624;10.106;2022-12-20T03:28:08;8.40;99.90
4922;DHT22;16625;53.624;10.106;2022-12-20T03:30:36;8.00;99.90
4922;DHT22;16625;53.624;10.106;2022-12-20T03:33:05;8.40;99.90
4922;DHT22;16625;53.624;10.106;2022-12-20T03:35:32;9.50;99.90
4922;DHT22;16625;53.624;10.106;2022-12-20T03:37:59;8.50;99.90
4922;DHT22;16625;53.624;10.106;2022-12-20T03:43:35;8.40;99.90
4922;DHT22;16625;53.624;10.106;2022-12-20T03:46:02;8.40;99.90
4922;DHT22;16625;53.624;10.106;2022-12-20T03:48:30;8.90;99.90
4922;DHT22;16625;53.624;10.106;2022-12-20T03:51:01;8.20;99.90
4922;DHT22;16625;53.624;10.106;2022-12-20T03:53:27;8.40;99.90
4922;DHT22;16625;53.624;10.106;2022-12-20T03:55:55;9.20;99.90
4922;DHT22;16625;53.624;10.106;2022-12-20T03:58:22;8.50;99.90
4922;DHT22;16625;53.624;10.106;2022-12-20T04:00:50;8.50;99.90
4922;DHT22;16625;53.624;10.106;2022-12-20T04:03:17;8.50;99.90
4922;DHT22;16625;53.624;10.106;2022-12-20T04:05:45;8.90;99.90
4922;DHT22;16625;53.624;10.106;2022-12-20T04:08:12;9.60;99.90
4922;DHT22;16625;53.624;10.106;2022-12-20T04:10:39;8.50;99.90
4922;DHT22;16625;53.624;10.106;2022-12-20T04:13:20;8.50;99.90
4922;DHT22;16625;53.624;10.106;2022-12-20T04:15:47;9.10;99.90
4922;DHT22;16625;53.624;10.106;2022-12-20T04:18:14;8.50;99.90
4922;DHT22;16625;53.624;10.106;2022-12-20T04:20:42;8.80;99.90
4922;DHT22;16625;53.624;10.106;2022-12-20T04:23:11;7.80;99.90
4922;DHT22;16625;53.624;10.106;2022-12-20T04:25:38;8.70;99.90
4922;DHT22;16625;53.624;10.106;2022-12-20T04:28:09;7.90;99.90
4922;DHT22;16625;53.624;10.106;2022-12-20T04:30:36;8.10;99.90
4922;DHT22;16625;53.624;10.106;2022-12-20T04:33:03;8.70;99.90
4922;DHT22;16625;53.624;10.106;2022-12-20T04:35:30;9.00;99.90
4922;DHT22;16625;53.624;10.106;2022-12-20T04:37:58;8.70;99.90
4922;DHT22;16625;53.624;10.106;2022-12-20T04:40:26;7.80;99.90
4922;DHT22;16625;53.624;10.106;2022-12-20T04:42:54;9.00;99.90
4922;DHT22;16625;53.624;10.106;2022-12-20T04:45:20;9.50;99.90
4922;DHT22;16625;53.624;10.106;2022-12-20T04:47:47;9.30;99.90
4922;DHT22;16625;53.624;10.106;2022-12-20T04:50:14;8.40;99.90
4922;DHT22;16625;53.624;10.106;2022-12-20T04:52:43;8.40;99.90
4922;DHT22;16625;53.624;10.106;2022-12-20T04:55:29;7.70;99.90
4922;DHT22;16625;53.624;10.106;2022-12-20T04:57:55;8.40;99.90
4922;DHT22;16625;53.624;10.106;2022-12-20T05:00:22;8.30;99.90
4922;DHT22;16625;53.624;10.106;2022-12-20T05:02:49;8.40;99.90
4922;DHT22;16625;53.624;10.106;2022-12-20T05:05:16;8.30;99.90
4922;DHT22;16625;53.624;10.106;2022-12-20T05:07:46;6.90;99.90
4922;DHT22;16625;53.624;10.106;2022-12-20T05:10:13;8.30;99.90
4922;DHT22;16625;53.624;10.106;2022-12-20T05:12:41;8.30;99.90
4922;DHT22;16625;53.624;10.106;2022-12-20T05:15:09;8.90;99.90
4922;DHT22;16625;53.624;10.106;2022-12-20T05:17:37;7.90;99.90
4922;DHT22;16625;53.624;10.106;2022-12-20T05:20:05;8.10;99.90
4922;DHT22;16625;53.624;10.106;2022-12-20T05:22:32;8.20;99.90
4922;DHT22;16625;53.624;10.106;2022-12-20T05:25:17;8.20;99.90
4922;DHT22;16625;53.624;10.106;2022-12-20T05:28:14;8.90;99.90
4922;DHT22;16625;53.624;10.106;2022-12-20T05:30:40;8.10;99.90
4922;DHT22;16625;53.624;10.106;2022-12-20T05:33:07;8.10;99.90
4922;DHT22;16625;53.624;10.106;2022-12-20T05:35:34;9.10;99.90
4922;DHT22;16625;53.624;10.106;2022-12-20T05:38:01;8.00;99.90
4922;DHT22;16625;53.624;10.106;2022-12-20T05:40:28;8.90;99.90
4922;DHT22;16625;53.624;10.106;2022-12-20T05:42:55;8.10;99.90
4922;DHT22;16625;53.624;10.106;2022-12-20T05:45:23;8.90;99.90
4922;DHT22;16625;53.624;10.106;2022-12-20T05:47:50;8.10;99.90
4922;DHT22;16625;53.624;10.106;2022-12-20T05:50:18;8.50;99.90
4922;DHT22;16625;53.624;10.106;2022-12-20T05:52:45;9.40;99.90
4922;DHT22;16625;53.624;10.106;2022-12-20T05:55:12;8.00;99.90
4922;DHT22;16625;53.624;10.106;2022-12-20T05:57:39;8.00;99.90
4922;DHT22;16625;53.624;10.106;2022-12-20T06:00:06;7.80;99.90
4922;DHT22;16625;53.624;10.106;2022-12-20T06:02:35;7.90;99.90
4922;DHT22;16625;53.624;10.106;2022-12-20T06:05:01;7.80;99.90
4922;DHT22;16625;53.624;10.106;2022-12-20T06:07:28;8.70;99.90
4922;DHT22;16625;53.624;10.106;2022-12-20T06:09:56;8.80;99.90
4922;DHT22;16625;53.624;10.106;2022-12-20T06:12:23;7.80;99.90
4922;DHT22;16625;53.624;10.106;2022-12-20T06:14:50;9.10;99.90
4922;DHT22;16625;53.624;10.106;2022-12-20T06:17:16;7.80;99.90
4922;DHT22;16625;53.624;10.106;2022-12-20T06:19:46;7.80;99.90
4922;DHT22;16625;53.624;10.106;2022-12-20T06:22:13;7.80;99.90
4922;DHT22;16625;53.624;10.106;2022-12-20T06:24:39;7.80;99.90
4922;DHT22;16625;53.624;10.106;2022-12-20T06:27:06;7.80;99.90
4922;DHT22;16625;53.624;10.106;2022-12-20T06:29:33;7.70;99.90
4922;DHT22;16625;53.624;10.106;2022-12-20T06:32:02;8.60;99.90
4922;DHT22;16625;53.624;10.106;2022-12-20T06:34:29;7.70;99.90
4922;DHT22;16625;53.624;10.106;2022-12-20T06:36:58;7.80;99.90
4922;DHT22;16625;53.624;10.106;2022-12-20T06:39:24;7.80;99.90
4922;DHT22;16625;53.624;10.106;2022-12-20T06:41:51;9.10;99.90
4922;DHT22;16625;53.624;10.106;2022-12-20T06:44:18;7.70;99.90
4922;DHT22;16625;53.624;10.106;2022-12-20T06:46:45;9.20;99.90
4922;DHT22;16625;53.624;10.106;2022-12-20T06:49:12;7.70;99.90
4922;DHT22;16625;53.624;10.106;2022-12-20T06:51:38;8.70;99.90
4922;DHT22;16625;53.624;10.106;2022-12-20T06:54:06;8.50;99.90
4922;DHT22;16625;53.624;10.106;2022-12-20T06:56:33;7.60;99.90
4922;DHT22;16625;53.624;10.106;2022-12-20T06:59:00;7.70;99.90
4922;DHT22;16625;53.624;10.106;2022-12-20T07:01:27;7.80;99.90
4922;DHT22;16625;53.624;10.106;2022-12-20T07:03:53;7.80;99.90
4922;DHT22;16625;53.624;10.106;2022-12-20T07:06:20;7.90;99.90
4922;DHT22;16625;53.624;10.106;2022-12-20T07:08:47;7.90;99.90
4922;DHT22;16625;53.624;10.106;2022-12-20T07:11:18;9.10;99.90
4922;DHT22;16625;53.624;10.106;2022-12-20T07:13:45;8.40;99.90
4922;DHT22;16625;53.624;10.106;2022-12-20T07:16:11;8.00;99.90
4922;DHT22;16625;53.624;10.106;2022-12-20T07:18:39;8.00;99.90
4922;DHT22;16625;53.624;10.106;2022-12-20T07:21:06;8.00;99.90
4922;DHT22;16625;53.624;10.106;2022-12-20T07:23:33;8.00;99.90
4922;DHT22;16625;53.624;10.106;2022-12-20T07:26:00;8.10;99.90
4922;DHT22;16625;53.624;10.106;2022-12-20T07:28:29;9.30;99.90
4922;DHT22;16625;53.624;10.106;2022-12-20T07:31:06;8.00;99.90
4922;DHT22;16625;53.624;10.106;2022-12-20T07:33:33;8.00;99.90
4922;DHT22;16625;53.624;10.106;2022-12-20T07:36:00;8.00;99.90
4922;DHT22;16625;53.624;10.106;2022-12-20T07:38:27;8.00;99.90
4922;DHT22;16625;53.624;10.106;2022-12-20T07:40:54;8.00;99.90
4922;DHT22;16625;53.624;10.106;2022-12-20T07:43:22;8.10;99.90
4922;DHT22;16625;53.624;10.106;2022-12-20T07:45:54;8.10;99.90
4922;DHT22;16625;53.624;10.106;2022-12-20T07:48:21;8.00;99.90
4922;DHT22;16625;53.624;10.106;2022-12-20T07:50:50;8.10;99.90
4922;DHT22;16625;53.624;10.106;2022-12-20T07:53:18;8.10;99.90
4922;DHT22;16625;53.624;10.106;2022-12-20T07:55:45;9.10;99.90
4922;DHT22;16625;53.624;10.106;2022-12-20T07:58:12;8.00;99.90
4922;DHT22;16625;53.624;10.106;2022-12-20T08:00:40;8.10;99.90
4922;DHT22;16625;53.624;10.106;2022-12-20T08:03:11;8.20;99.90
4922;DHT22;16625;53.624;10.106;2022-12-20T08:05:41;8.10;99.90
4922;DHT22;16625;53.624;10.106;2022-12-20T08:08:09;8.20;99.90
4922;DHT22;16625;53.624;10.106;2022-12-20T08:10:36;8.20;99.90
4922;DHT22;16625;53.624;10.106;2022-12-20T08:13:04;8.20;99.90
4922;DHT22;16625;53.624;10.106;2022-12-20T08:15:32;8.20;99.90
4922;DHT22;16625;53.624;10.106;2022-12-20T08:18:00;8.80;99.90
4922;DHT22;16625;53.624;10.106;2022-12-20T08:20:28;8.00;99.90
4922;DHT22;16625;53.624;10.106;2022-12-20T08:22:55;8.10;99.90
4922;DHT22;16625;53.624;10.106;2022-12-20T08:25:22;8.10;99.90
4922;DHT22;16625;53.624;10.106;2022-12-20T08:27:49;8.10;99.90
4922;DHT22;16625;53.624;10.106;2022-12-20T08:30:16;8.10;99.90
4922;DHT22;16625;53.624;10.106;2022-12-20T08:32:43;8.10;99.90
4922;DHT22;16625;53.624;10.106;2022-12-20T08:35:09;8.20;99.90
4922;DHT22;16625;53.624;10.106;2022-12-20T08:37:38;8.10;99.90
4922;DHT22;16625;53.624;10.106;2022-12-20T08:40:07;8.20;99.90
4922;DHT22;16625;53.624;10.106;2022-12-20T08:42:34;8.20;99.90
4922;DHT22;16625;53.624;10.106;2022-12-20T08:45:00;8.20;99.90
4922;DHT22;16625;53.624;10.106;2022-12-20T08:47:28;8.30;99.90
4922;DHT22;16625;53.624;10.106;2022-12-20T08:49:55;8.30;99.90
4922;DHT22;16625;53.624;10.106;2022-12-20T08:52:22;8.30;99.90
4922;DHT22;16625;53.624;10.106;2022-12-20T08:54:50;8.30;99.90
4922;DHT22;16625;53.624;10.106;2022-12-20T08:57:17;8.50;99.90
4922;DHT22;16625;53.624;10.106;2022-12-20T08:59:43;8.50;99.90
4922;DHT22;16625;53.624;10.106;2022-12-20T09:02:10;9.20;99.90
4922;DHT22;16625;53.624;10.106;2022-12-20T09:04:37;8.50;99.90
4922;DHT22;16625;53.624;10.106;2022-12-20T09:07:04;8.50;99.90
4922;DHT22;16625;53.624;10.106;2022-12-20T09:09:31;8.60;99.90
4922;DHT22;16625;53.624;10.106;2022-12-20T09:11:59;8.60;99.90
4922;DHT22;16625;53.624;10.106;2022-12-20T09:14:26;8.60;99.90
4922;DHT22;16625;53.624;10.106;2022-12-20T09:16:53;8.70;99.90
4922;DHT22;16625;53.624;10.106;2022-12-20T09:19:19;8.70;99.90
4922;DHT22;16625;53.624;10.106;2022-12-20T09:21:46;8.70;99.90
4922;DHT22;16625;53.624;10.106;2022-12-20T09:24:13;8.80;99.90
4922;DHT22;16625;53.624;10.106;2022-12-20T09:26:48;8.80;99.90
4922;DHT22;16625;53.624;10.106;2022-12-20T09:29:20;8.90;99.90
4922;DHT22;16625;53.624;10.106;2022-12-20T09:31:48;8.90;99.90
4922;DHT22;16625;53.624;10.106;2022-12-20T09:34:15;8.90;99.90
4922;DHT22;16625;53.624;10.106;2022-12-20T09:36:42;9.10;99.90
4922;DHT22;16625;53.624;10.106;2022-12-20T09:39:09;9.10;99.90
4922;DHT22;16625;53.624;10.106;2022-12-20T09:41:38;9.10;99.90
4922;DHT22;16625;53.624;10.106;2022-12-20T09:44:13;9.20;99.90
4922;DHT22;16625;53.624;10.106;2022-12-20T09:46:43;9.20;99.90
4922;DHT22;16625;53.624;10.106;2022-12-20T09:49:14;9.20;99.90
4922;DHT22;16625;53.624;10.106;2022-12-20T09:51:54;9.20;99.90
4922;DHT22;16625;53.624;10.106;2022-12-20T09:54:30;9.20;99.90
4922;DHT22;16625;53.624;10.106;2022-12-20T09:57:05;9.40;99.90
4922;DHT22;16625;53.624;10.106;2022-12-20T09:59:34;9.30;99.90
4922;DHT22;16625;53.624;10.106;2022-12-20T10:02:08;9.30;99.90
4922;DHT22;16625;53.624;10.106;2022-12-20T10:04:35;9.40;99.90
4922;DHT22;16625;53.624;10.106;2022-12-20T10:07:18;9.40;99.90
4922;DHT22;16625;53.624;10.106;2022-12-20T10:10:00;9.40;99.90
4922;DHT22;16625;53.624;10.106;2022-12-20T10:12:37;9.50;99.90
4922;DHT22;16625;53.624;10.106;2022-12-20T10:15:19;9.40;99.90
4922;DHT22;16625;53.624;10.106;2022-12-20T10:20:54;9.40;99.90
4922;DHT22;16625;53.624;10.106;2022-12-20T10:23:25;9.50;99.90
4922;DHT22;16625;53.624;10.106;2022-12-20T10:25:54;9.50;99.90
4922;DHT22;16625;53.624;10.106;2022-12-20T10:28:25;9.60;99.90
4922;DHT22;16625;53.624;10.106;2022-12-20T10:30:53;9.60;99.90
4922;DHT22;16625;53.624;10.106;2022-12-20T10:33:23;9.60;99.90
4922;DHT22;16625;53.624;10.106;2022-12-20T10:35:50;9.60;99.90
4922;DHT22;16625;53.624;10.106;2022-12-20T10:38:18;9.70;99.90
4922;DHT22;16625;53.624;10.106;2022-12-20T10:40:47;9.70;99.90
4922;DHT22;16625;53.624;10.106;2022-12-20T10:43:15;9.70;99.90
4922;DHT22;16625;53.624;10.106;2022-12-20T10:45:53;9.70;99.90
4922;DHT22;16625;53.624;10.106;2022-12-20T10:48:31;9.80;99.90
4922;DHT22;16625;53.624;10.106;2022-12-20T10:51:00;9.90;99.90
4922;DHT22;16625;53.624;10.106;2022-12-20T10:53:28;10.00;99.90
4922;DHT22;16625;53.624;10.106;2022-12-20T10:56:11;10.10;99.90
4922;DHT22;16625;53.624;10.106;2022-12-20T10:58:39;10.10;99.90
4922;DHT22;16625;53.624;10.106;2022-12-20T11:01:11;10.10;99.90
4922;DHT22;16625;53.624;10.106;2022-12-20T11:03:52;10.00;99.90
4922;DHT22;16625;53.624;10.106;2022-12-20T11:06:20;10.00;99.90
4922;DHT22;16625;53.624;10.106;2022-12-20T11:08:47;10.00;99.90
4922;DHT22;16625;53.624;10.106;2022-12-20T11:11:17;9.90;99.90
4922;DHT22;16625;53.624;10.106;2022-12-20T11:13:45;10.00;99.90
4922;DHT22;16625;53.624;10.106;2022-12-20T11:16:22;10.00;99.90
4922;DHT22;16625;53.624;10.106;2022-12-20T11:18:59;9.90;99.90
4922;DHT22;16625;53.624;10.106;2022-12-20T11:21:36;9.90;99.90
4922;DHT22;16625;53.624;10.106;2022-12-20T11:24:10;9.90;99.90
4922;DHT22;16625;53.624;10.106;2022-12-20T11:26:53;10.00;99.90
4922;DHT22;16625;53.624;10.106;2022-12-20T11:29:40;10.00;99.90
4922;DHT22;16625;53.624;10.106;2022-12-20T11:32:17;10.10;99.90
4922;DHT22;16625;53.624;10.106;2022-12-20T11:34:54;10.10;99.90
4922;DHT22;16625;53.624;10.106;2022-12-20T11:37:25;10.20;99.90
4922;DHT22;16625;53.624;10.106;2022-12-20T11:40:04;10.10;99.90
4922;DHT22;16625;53.624;10.106;2022-12-20T11:42:41;10.20;99.90
4922;DHT22;16625;53.624;10.106;2022-12-20T11:45:17;10.20;99.90
4922;DHT22;16625;53.624;10.106;2022-12-20T11:48:12;10.10;99.90
4922;DHT22;16625;53.624;10.106;2022-12-20T11:50:51;10.10;99.90
4922;DHT22;16625;53.624;10.106;2022-12-20T11:53:25;10.00;99.90
4922;DHT22;16625;53.624;10.106;2022-12-20T11:55:57;10.10;99.90
4922;DHT22;16625;53.624;10.106;2022-12-20T11:58:28;10.00;99.90
4922;DHT22;16625;53.624;10.106;2022-12-20T12:01:02;10.00;99.90
4922;DHT22;16625;53.624;10.106;2022-12-20T12:03:32;10.00;99.90
4922;DHT22;16625;53.624;10.106;2022-12-20T12:06:04;10.00;99.90
4922;DHT22;16625;53.624;10.106;2022-12-20T12:08:39;10.00;99.90
4922;DHT22;16625;53.624;10.106;2022-12-20T12:11:12;10.00;99.90
4922;DHT22;16625;53.624;10.106;2022-12-20T12:13:40;10.00;99.90
4922;DHT22;16625;53.624;10.106;2022-12-20T12:16:10;10.00;99.90
4922;DHT22;16625;53.624;10.106;2022-12-20T12:18:38;10.00;99.90
4922;DHT22;16625;53.624;10.106;2022-12-20T12:21:12;10.10;99.90
4922;DHT22;16625;53.624;10.106;2022-12-20T12:23:48;10.00;99.90
4922;DHT22;16625;53.624;10.106;2022-12-20T12:26:20;10.00;99.90
4922;DHT22;16625;53.624;10.106;2022-12-20T12:28:54;9.90;99.90
4922;DHT22;16625;53.624;10.106;2022-12-20T12:31:26;10.20;99.90
4922;DHT22;16625;53.624;10.106;2022-12-20T12:34:03;9.90;99.90
4922;DHT22;16625;53.624;10.106;2022-12-20T12:36:49;9.90;99.90
4922;DHT22;16625;53.624;10.106;2022-12-20T12:39:41;9.80;99.90
4922;DHT22;16625;53.624;10.106;2022-12-20T12:45:15;9.80;99.90
4922;DHT22;16625;53.624;10.106;2022-12-20T12:47:48;9.80;99.90
4922;DHT22;16625;53.624;10.106;2022-12-20T12:50:22;9.80;99.90
4922;DHT22;16625;53.624;10.106;2022-12-20T12:52:53;9.80;99.90
4922;DHT22;16625;53.624;10.106;2022-12-20T12:55:38;9.70;99.90
4922;DHT22;16625;53.624;10.106;2022-12-20T12:58:32;9.80;99.90
4922;DHT22;16625;53.624;10.106;2022-12-20T13:01:02;9.90;99.90
4922;DHT22;16625;53.624;10.106;2022-12-20T13:03:44;10.00;99.90
4922;DHT22;16625;53.624;10.106;2022-12-20T13:09:41;10.00;99.90
4922;DHT22;16625;53.624;10.106;2022-12-20T13:15:49;9.90;99.90
4922;DHT22;16625;53.624;10.106;2022-12-20T13:18:26;9.90;99.90
4922;DHT22;16625;53.624;10.106;2022-12-20T13:27:14;9.80;99.90
4922;DHT22;16625;53.624;10.106;2022-12-20T13:29:52;9.80;99.90
4922;DHT22;16625;53.624;10.106;2022-12-20T13:32:54;9.70;99.90
4922;DHT22;16625;53.624;10.106;2022-12-20T13:35:31;9.70;99.90
4922;DHT22;16625;53.624;10.106;2022-12-20T13:37:59;9.60;99.90
4922;DHT22;16625;53.624;10.106;2022-12-20T13:40:34;9.60;99.90
4922;DHT22;16625;53.624;10.106;2022-12-20T13:43:06;9.60;99.90
4922;DHT22;16625;53.624;10.106;2022-12-20T13:45:37;9.50;99.90
4922;DHT22;16625;53.624;10.106;2022-12-20T13:48:05;9.50;99.90
4922;DHT22;16625;53.624;10.106;2022-12-20T13:50:34;9.50;99.90
4922;DHT22;16625;53.624;10.106;2022-12-20T13:53:06;9.50;99.90
4922;DHT22;16625;53.624;10.106;2022-12-20T13:55:41;9.40;99.90
4922;DHT22;16625;53.624;10.106;2022-12-20T13:58:16;9.40;99.90
4922;DHT22;16625;53.624;10.106;2022-12-20T14:00:44;9.40;99.90
4922;DHT22;16625;53.624;10.106;2022-12-20T14:03:22;9.30;99.90
4922;DHT22;16625;53.624;10.106;2022-12-20T14:05:54;9.40;99.90
4922;DHT22;16625;53.624;10.106;2022-12-20T14:08:25;9.30;99.90
4922;DHT22;16625;53.624;10.106;2022-12-20T14:10:52;9.30;99.90
4922;DHT22;16625;53.624;10.106;2022-12-20T14:13:22;9.30;99.90
4922;DHT22;16625;53.624;10.106;2022-12-20T14:15:49;9.30;99.90
4922;DHT22;16625;53.624;10.106;2022-12-20T14:18:18;9.30;99.90
4922;DHT22;16625;53.624;10.106;2022-12-20T14:20:48;9.30;99.90
4922;DHT22;16625;53.624;10.106;2022-12-20T14:23:16;9.30;99.90
4922;DHT22;16625;53.624;10.106;2022-12-20T14:25:47;9.30;99.90
4922;DHT22;16625;53.624;10.106;2022-12-20T14:28:31;9.20;99.90
4922;DHT22;16625;53.624;10.106;2022-12-20T14:31:01;9.30;99.90
4922;DHT22;16625;53.624;10.106;2022-12-20T14:33:30;9.20;99.90
4922;DHT22;16625;53.624;10.106;2022-12-20T14:36:07;9.30;99.90
4922;DHT22;16625;53.624;10.106;2022-12-20T14:38:34;9.20;99.90
4922;DHT22;16625;53.624;10.106;2022-12-20T14:41:01;9.20;99.90
4922;DHT22;16625;53.624;10.106;2022-12-20T14:43:33;9.20;99.90
4922;DHT22;16625;53.624;10.106;2022-12-20T14:46:22;9.10;99.90
4922;DHT22;16625;53.624;10.106;2022-12-20T14:49:06;9.10;99.90
4922;DHT22;16625;53.624;10.106;2022-12-20T14:51:37;9.10;99.90
4922;DHT22;16625;53.624;10.106;2022-12-20T14:54:05;9.10;99.90
4922;DHT22;16625;53.624;10.106;2022-12-20T14:56:31;9.10;99.90
4922;DHT22;16625;53.624;10.106;2022-12-20T14:59:10;9.00;99.90
4922;DHT22;16625;53.624;10.106;2022-12-20T15:01:38;9.00;99.90
4922;DHT22;16625;53.624;10.106;2022-12-20T15:04:20;9.00;99.90
4922;DHT22;16625;53.624;10.106;2022-12-20T15:06:47;9.00;99.90
4922;DHT22;16625;53.624;10.106;2022-12-20T15:09:14;8.90;99.90
4922;DHT22;16625;53.624;10.106;2022-12-20T15:11:42;9.00;99.90
4922;DHT22;16625;53.624;10.106;2022-12-20T15:14:21;8.90;99.90
4922;DHT22;16625;53.624;10.106;2022-12-20T15:16:50;8.90;99.90
4922;DHT22;16625;53.624;10.106;2022-12-20T15:19:17;8.90;99.90
4922;DHT22;16625;53.624;10.106;2022-12-20T15:21:45;8.90;99.90
4922;DHT22;16625;53.624;10.106;2022-12-20T15:24:14;8.90;99.90
4922;DHT22;16625;53.624;10.106;2022-12-20T15:26:41;8.90;99.90
4922;DHT22;16625;53.624;10.106;2022-12-20T15:29:15;8.80;99.90
4922;DHT22;16625;53.624;10.106;2022-12-20T15:31:43;8.90;99.90
4922;DHT22;16625;53.624;10.106;2022-12-20T15:34:13;8.80;99.90
4922;DHT22;16625;53.624;10.106;2022-12-20T15:36:40;8.80;99.90
4922;DHT22;16625;53.624;10.106;2022-12-20T15:39:09;8.80;99.90
4922;DHT22;16625;53.624;10.106;2022-12-20T15:41:40;8.80;99.90
4922;DHT22;16625;53.624;10.106;2022-12-20T15:44:11;8.80;99.90
4922;DHT22;16625;53.624;10.106;2022-12-20T15:46:40;8.80;99.90
4922;DHT22;16625;53.624;10.106;2022-12-20T15:49:11;8.80;99.90
4922;DHT22;16625;53.624;10.106;2022-12-20T15:51:38;8.80;99.90
4922;DHT22;16625;53.624;10.106;2022-12-20T15:54:14;8.80;99.90
4922;DHT22;16625;53.624;10.106;2022-12-20T15:56:42;8.80;99.90
4922;DHT22;16625;53.624;10.106;2022-12-20T15:59:09;8.80;99.90
4922;DHT22;16625;53.624;10.106;2022-12-20T16:01:37;8.70;99.90
4922;DHT22;16625;53.624;10.106;2022-12-20T16:04:08;8.70;99.90
4922;DHT22;16625;53.624;10.106;2022-12-20T16:06:38;8.70;99.90
4922;DHT22;16625;53.624;10.106;2022-12-20T16:09:04;8.70;99.90
4922;DHT22;16625;53.624;10.106;2022-12-20T16:11:31;8.70;99.90
4922;DHT22;16625;53.624;10.106;2022-12-20T16:13:58;8.70;99.90
4922;DHT22;16625;53.624;10.106;2022-12-20T16:16:28;8.70;99.90
4922;DHT22;16625;53.624;10.106;2022-12-20T16:18:55;8.70;99.90
4922;DHT22;16625;53.624;10.106;2022-12-20T16:21:25;8.70;99.90
4922;DHT22;16625;53.624;10.106;2022-12-20T16:23:53;8.70;99.90
4922;DHT22;16625;53.624;10.106;2022-12-20T16:26:21;8.80;99.90
4922;DHT22;16625;53.624;10.106;2022-12-20T16:28:50;8.80;99.90
4922;DHT22;16625;53.624;10.106;2022-12-20T16:31:22;8.80;99.90
4922;DHT22;16625;53.624;10.106;2022-12-20T16:33:51;8.80;99.90
4922;DHT22;16625;53.624;10.106;2022-12-20T16:36:20;8.80;99.90
4922;DHT22;16625;53.624;10.106;2022-12-20T16:38:49;8.90;99.90
4922;DHT22;16625;53.624;10.106;2022-12-20T16:41:18;8.90;99.90